EHGG Airport Information

Runway Information
Runway 01 Length 4922 ft width 148 ft
Elevation 16 ft Threshold ft Heading 9
Runway 19 Length 4922 ft Width 148 ft
Elevation 12 ft Threshold ft Heading 189
Runway 05 Length 8202 ft width 148 ft
Elevation 13 ft Threshold ft Heading 52
Runway 23 Length 8202 ft Width 148 ft
Elevation 13 ft Threshold ft Heading 232
Airport Frequencies
Type APP Name APP Frequency 120.3 MHZ
Type ATIS Name ATIS Frequency 133.55 MHZ
Type GCCD Name GND/CLNC D Frequency 121.7 MHZ
Type TWR Name TWR Frequency 118.7 MHZ
Airport Navaids
Type VOR-DME Name Eelde Frequency 112400 KHZ
Type NDB Name Eelde Frequency 330 KHZ
Airport Weather Information & NOTAM
ADDS - METARS form results

(0423 UTC 29 June 2022)
Data provider http://aviationweather.gov/metar/data/
 
METAR text: EHGG 290355Z AUTO 08005KT 9999 NSC 15/12 Q1016
Conditions at: EHGG (GRONINGEN/EELDE , NL) observed 0355 UTC 29 June 2022
Temperature: 15.0°C (59°F)
Dewpoint: 12.0°C (54°F) [RH = 82%]
Pressure (altimeter): 30.00 inches Hg (1016.0 mb)
Winds: from the E (80 degrees) at 6 MPH (5 knots; 2.6 m/s)
Visibility: 6 or more miles (10+ km)
Ceiling: at least 12,000 feet AGL
Clouds: sky clear below 12,000 feet AGL
Weather: no significant weather observed at this time

METAR text: EHGG 290325Z AUTO 09005KT 9999 NSC 15/12 Q1016
Conditions at: EHGG (GRONINGEN/EELDE , NL) observed 0325 UTC 29 June 2022
Temperature: 15.0°C (59°F)
Dewpoint: 12.0°C (54°F) [RH = 82%]
Pressure (altimeter): 30.00 inches Hg (1016.0 mb)
Winds: from the E (90 degrees) at 6 MPH (5 knots; 2.6 m/s)
Visibility: 6 or more miles (10+ km)
Ceiling: at least 12,000 feet AGL
Clouds: sky clear below 12,000 feet AGL
Weather: no significant weather observed at this time

Forecast for: EHGG (GRONINGEN/EELDE , NL)
Text: TAF EHGG 282259Z 2900/3006 11006KT CAVOK
Forecast period: 0000 UTC 29 June 2022 to 0600 UTC 30 June 2022
Forecast type: FROM: standard forecast or significant change
Winds: from the ESE (110 degrees) at 7 MPH (6 knots; 3.1 m/s)
Visibility: 6 or more miles (10+ km)
Ceiling: unknown
Clouds: missing
Weather: NSW  (no significant weather)